sensor_id;sensor_type;location;lat;lon;timestamp;pressure;altitude;pressure_sealevel;temperature;humidity
41044;BME280;51680;49.806;18.774;2023-02-15T00:02:26;98982.66;;;4.78;76.46
41044;BME280;51680;49.806;18.774;2023-02-15T00:05:30;98984.34;;;4.79;76.77
41044;BME280;51680;49.806;18.774;2023-02-15T00:08:33;98986.84;;;4.83;76.44
41044;BME280;51680;49.806;18.774;2023-02-15T00:11:34;98979.06;;;4.85;76.29
41044;BME280;51680;49.806;18.774;2023-02-15T00:14:43;98979.91;;;4.87;76.40
41044;BME280;51680;49.806;18.774;2023-02-15T00:17:46;98972.91;;;4.93;76.50
41044;BME280;51680;49.806;18.774;2023-02-15T00:20:48;98973.84;;;4.88;76.64
41044;BME280;51680;49.806;18.774;2023-02-15T00:23:49;98975.16;;;4.61;77.11
41044;BME280;51680;49.806;18.774;2023-02-15T00:26:51;98968.56;;;4.39;78.51
41044;BME280;51680;49.806;18.774;2023-02-15T00:29:53;98972.25;;;4.23;78.89
41044;BME280;51680;49.806;18.774;2023-02-15T00:32:56;98975.38;;;3.83;81.04
41044;BME280;51680;49.806;18.774;2023-02-15T00:35:58;98973.16;;;3.51;82.86
41044;BME280;51680;49.806;18.774;2023-02-15T00:39:00;98974.38;;;3.16;84.00
41044;BME280;51680;49.806;18.774;2023-02-15T00:42:02;98973.78;;;2.82;85.56
41044;BME280;51680;49.806;18.774;2023-02-15T00:45:04;98967.06;;;2.68;86.14
41044;BME280;51680;49.806;18.774;2023-02-15T00:48:07;98963.63;;;2.66;86.26
41044;BME280;51680;49.806;18.774;2023-02-15T00:51:09;98965.41;;;2.56;87.03
41044;BME280;51680;49.806;18.774;2023-02-15T00:54:11;98968.09;;;2.41;87.92
41044;BME280;51680;49.806;18.774;2023-02-15T00:57:13;98950.06;;;2.43;87.99
41044;BME280;51680;49.806;18.774;2023-02-15T01:00:15;98957.78;;;2.43;88.27
41044;BME280;51680;49.806;18.774;2023-02-15T01:03:19;98949.19;;;2.42;88.32
41044;BME280;51680;49.806;18.774;2023-02-15T01:06:21;98954.41;;;2.36;88.29
41044;BME280;51680;49.806;18.774;2023-02-15T01:09:23;98947.59;;;2.25;89.12
41044;BME280;51680;49.806;18.774;2023-02-15T01:12:25;98951.94;;;2.21;89.39
41044;BME280;51680;49.806;18.774;2023-02-15T01:15:27;98947.56;;;2.31;88.68
41044;BME280;51680;49.806;18.774;2023-02-15T01:18:30;98951.72;;;2.48;87.94
41044;BME280;51680;49.806;18.774;2023-02-15T01:21:32;98943.88;;;2.63;87.10
41044;BME280;51680;49.806;18.774;2023-02-15T01:24:36;98939.44;;;2.80;86.08
41044;BME280;51680;49.806;18.774;2023-02-15T01:27:38;98935.91;;;2.95;85.56
41044;BME280;51680;49.806;18.774;2023-02-15T01:30:41;98927.22;;;3.00;85.03
41044;BME280;51680;49.806;18.774;2023-02-15T01:33:45;98929.94;;;2.85;85.19
41044;BME280;51680;49.806;18.774;2023-02-15T01:36:46;98929.06;;;2.86;85.30
41044;BME280;51680;49.806;18.774;2023-02-15T01:39:49;98928.16;;;2.95;85.01
41044;BME280;51680;49.806;18.774;2023-02-15T01:42:52;98921.25;;;2.98;84.51
41044;BME280;51680;49.806;18.774;2023-02-15T01:45:55;98922.06;;;3.00;84.82
41044;BME280;51680;49.806;18.774;2023-02-15T01:49:02;98909.09;;;3.08;84.80
41044;BME280;51680;49.806;18.774;2023-02-15T01:52:05;98900.38;;;3.18;84.09
41044;BME280;51680;49.806;18.774;2023-02-15T01:55:08;98902.88;;;3.25;83.45
41044;BME280;51680;49.806;18.774;2023-02-15T01:58:10;98895.94;;;3.32;82.95
41044;BME280;51680;49.806;18.774;2023-02-15T02:01:13;98902.75;;;3.40;82.32
41044;BME280;51680;49.806;18.774;2023-02-15T02:04:21;98895.03;;;3.36;82.43
41044;BME280;51680;49.806;18.774;2023-02-15T02:07:27;98887.31;;;3.34;82.44
41044;BME280;51680;49.806;18.774;2023-02-15T02:10:30;98891.53;;;3.40;82.02
41044;BME280;51680;49.806;18.774;2023-02-15T02:13:32;98886.28;;;3.49;82.01
41044;BME280;51680;49.806;18.774;2023-02-15T02:16:40;98875.00;;;3.56;81.77
41044;BME280;51680;49.806;18.774;2023-02-15T02:20:11;98869.00;;;3.54;82.22
41044;BME280;51680;49.806;18.774;2023-02-15T02:23:48;98857.00;;;3.51;81.10
41044;BME280;51680;49.806;18.774;2023-02-15T02:27:12;98865.13;;;3.21;81.40
41044;BME280;51680;49.806;18.774;2023-02-15T02:30:47;98864.66;;;2.83;83.49
41044;BME280;51680;49.806;18.774;2023-02-15T02:33:59;98857.91;;;2.73;83.72
41044;BME280;51680;49.806;18.774;2023-02-15T02:37:08;98860.56;;;2.64;84.02
41044;BME280;51680;49.806;18.774;2023-02-15T02:40:16;98858.88;;;2.60;83.90
41044;BME280;51680;49.806;18.774;2023-02-15T02:43:25;98845.91;;;2.68;83.55
41044;BME280;51680;49.806;18.774;2023-02-15T02:46:35;98846.78;;;2.68;83.52
41044;BME280;51680;49.806;18.774;2023-02-15T02:49:41;98842.44;;;2.70;83.27
41044;BME280;51680;49.806;18.774;2023-02-15T02:52:45;98843.34;;;2.65;83.42
41044;BME280;51680;49.806;18.774;2023-02-15T02:55:48;98837.53;;;2.43;84.71
41044;BME280;51680;49.806;18.774;2023-02-15T02:58:56;98839.28;;;2.38;84.54
41044;BME280;51680;49.806;18.774;2023-02-15T03:02:05;98840.31;;;2.22;85.51
41044;BME280;51680;49.806;18.774;2023-02-15T03:05:17;98836.97;;;2.05;86.62
41044;BME280;51680;49.806;18.774;2023-02-15T03:08:22;98835.34;;;1.95;87.65
41044;BME280;51680;49.806;18.774;2023-02-15T03:11:28;98831.13;;;1.90;87.99
41044;BME280;51680;49.806;18.774;2023-02-15T03:14:31;98836.25;;;1.88;88.25
41044;BME280;51680;49.806;18.774;2023-02-15T03:17:35;98832.03;;;1.78;88.77
41044;BME280;51680;49.806;18.774;2023-02-15T03:20:39;98821.75;;;1.75;89.62
41044;BME280;51680;49.806;18.774;2023-02-15T03:23:41;98821.75;;;1.72;89.71
41044;BME280;51680;49.806;18.774;2023-02-15T03:26:45;98819.19;;;1.75;89.78
41044;BME280;51680;49.806;18.774;2023-02-15T03:29:52;98817.44;;;1.77;89.95
41044;BME280;51680;49.806;18.774;2023-02-15T03:33:13;98811.50;;;1.68;90.44
41044;BME280;51680;49.806;18.774;2023-02-15T03:36:20;98813.16;;;1.79;90.34
41044;BME280;51680;49.806;18.774;2023-02-15T03:39:30;98819.94;;;1.89;89.80
41044;BME280;51680;49.806;18.774;2023-02-15T03:42:38;98813.88;;;1.99;88.77
41044;BME280;51680;49.806;18.774;2023-02-15T03:45:42;98815.53;;;2.06;88.61
41044;BME280;51680;49.806;18.774;2023-02-15T03:48:57;98813.72;;;2.19;87.84
41044;BME280;51680;49.806;18.774;2023-02-15T03:52:03;98812.78;;;2.30;87.51
41044;BME280;51680;49.806;18.774;2023-02-15T03:55:07;98812.66;;;2.41;86.68
41044;BME280;51680;49.806;18.774;2023-02-15T03:58:28;98821.13;;;2.53;86.07
41044;BME280;51680;49.806;18.774;2023-02-15T04:01:54;98815.00;;;2.65;85.25
41044;BME280;51680;49.806;18.774;2023-02-15T04:05:00;98815.78;;;2.74;84.63
41044;BME280;51680;49.806;18.774;2023-02-15T04:08:03;98821.66;;;2.84;84.30
41044;BME280;51680;49.806;18.774;2023-02-15T04:11:05;98813.81;;;2.94;84.20
41044;BME280;51680;49.806;18.774;2023-02-15T04:14:06;98821.41;;;3.06;83.70
41044;BME280;51680;49.806;18.774;2023-02-15T04:17:22;98818.78;;;3.14;83.51
41044;BME280;51680;49.806;18.774;2023-02-15T04:20:23;98822.91;;;3.25;83.62
41044;BME280;51680;49.806;18.774;2023-02-15T04:23:44;98830.53;;;3.34;83.02
41044;BME280;51680;49.806;18.774;2023-02-15T04:27:04;98827.03;;;3.41;82.62
41044;BME280;51680;49.806;18.774;2023-02-15T04:30:07;98833.84;;;3.45;82.22
41044;BME280;51680;49.806;18.774;2023-02-15T04:33:09;98832.97;;;3.46;82.24
41044;BME280;51680;49.806;18.774;2023-02-15T04:36:10;98832.09;;;3.47;82.25
41044;BME280;51680;49.806;18.774;2023-02-15T04:39:15;98844.09;;;3.50;82.17
41044;BME280;51680;49.806;18.774;2023-02-15T04:42:17;98835.44;;;3.54;82.01
41044;BME280;51680;49.806;18.774;2023-02-15T04:45:19;98834.59;;;3.52;81.71
41044;BME280;51680;49.806;18.774;2023-02-15T04:48:21;98838.06;;;3.51;81.44
41044;BME280;51680;49.806;18.774;2023-02-15T04:51:23;98837.25;;;3.47;81.67
41044;BME280;51680;49.806;18.774;2023-02-15T04:54:27;98832.97;;;3.46;81.34
41044;BME280;51680;49.806;18.774;2023-02-15T04:57:28;98828.72;;;3.42;81.53
41044;BME280;51680;49.806;18.774;2023-02-15T05:00:30;98825.25;;;3.43;81.04
41044;BME280;51680;49.806;18.774;2023-02-15T05:03:32;98827.81;;;3.46;81.51
41044;BME280;51680;49.806;18.774;2023-02-15T05:06:33;98827.78;;;3.48;80.86
41044;BME280;51680;49.806;18.774;2023-02-15T05:09:36;98830.34;;;3.49;80.84
41044;BME280;51680;49.806;18.774;2023-02-15T05:12:38;98829.53;;;3.46;80.50
41044;BME280;51680;49.806;18.774;2023-02-15T05:15:40;98834.75;;;3.41;80.83
41044;BME280;51680;49.806;18.774;2023-02-15T05:18:42;98838.25;;;3.36;80.96
41044;BME280;51680;49.806;18.774;2023-02-15T05:21:44;98835.75;;;3.31;80.81
41044;BME280;51680;49.806;18.774;2023-02-15T05:24:47;98836.56;;;3.33;80.89
41044;BME280;51680;49.806;18.774;2023-02-15T05:28:08;98834.31;;;3.06;80.75
41044;BME280;51680;49.806;18.774;2023-02-15T05:31:22;98844.16;;;2.70;82.27
41044;BME280;51680;49.806;18.774;2023-02-15T05:34:24;98838.16;;;2.69;81.77
41044;BME280;51680;49.806;18.774;2023-02-15T05:37:25;98840.81;;;2.60;82.30
41044;BME280;51680;49.806;18.774;2023-02-15T05:40:28;98846.06;;;2.51;82.66
41044;BME280;51680;49.806;18.774;2023-02-15T05:43:31;98843.63;;;2.32;83.01
41044;BME280;51680;49.806;18.774;2023-02-15T05:46:33;98843.78;;;2.15;83.75
41044;BME280;51680;49.806;18.774;2023-02-15T05:49:35;98842.94;;;2.12;83.79
41044;BME280;51680;49.806;18.774;2023-02-15T05:52:36;98841.19;;;2.15;83.60
41044;BME280;51680;49.806;18.774;2023-02-15T05:55:40;98843.81;;;2.12;83.86
41044;BME280;51680;49.806;18.774;2023-02-15T05:58:42;98842.94;;;2.15;84.28
41044;BME280;51680;49.806;18.774;2023-02-15T06:01:43;98847.22;;;2.17;84.45
41044;BME280;51680;49.806;18.774;2023-02-15T06:04:45;98833.44;;;2.21;84.25
41044;BME280;51680;49.806;18.774;2023-02-15T06:07:47;98833.44;;;2.21;83.95
41044;BME280;51680;49.806;18.774;2023-02-15T06:10:50;98841.09;;;2.29;83.52
41044;BME280;51680;49.806;18.774;2023-02-15T06:13:51;98838.41;;;2.42;83.49
41044;BME280;51680;49.806;18.774;2023-02-15T06:16:53;98839.06;;;3.39;82.04
41044;BME280;51680;49.806;18.774;2023-02-15T06:19:55;98829.28;;;4.71;79.01
41044;BME280;51680;49.806;18.774;2023-02-15T06:22:57;98820.00;;;6.25;75.19
41044;BME280;51680;49.806;18.774;2023-02-15T06:26:00;98810.97;;;7.66;70.97
41044;BME280;51680;49.806;18.774;2023-02-15T06:29:02;98804.34;;;9.14;67.58
41044;BME280;51680;49.806;18.774;2023-02-15T06:32:04;98795.78;;;10.65;64.65
41044;BME280;51680;49.806;18.774;2023-02-15T06:35:06;98796.38;;;12.06;61.13
41044;BME280;51680;49.806;18.774;2023-02-15T06:38:08;98791.91;;;13.45;57.89
41044;BME280;51680;49.806;18.774;2023-02-15T06:41:11;98782.91;;;14.87;54.74
41044;BME280;51680;49.806;18.774;2023-02-15T06:44:13;98785.78;;;16.10;52.50
41044;BME280;51680;49.806;18.774;2023-02-15T06:47:15;98796.16;;;17.30;49.68
41044;BME280;51680;49.806;18.774;2023-02-15T06:50:17;98793.78;;;18.50;47.27
41044;BME280;51680;49.806;18.774;2023-02-15T06:53:18;98800.84;;;19.53;44.98
41044;BME280;51680;49.806;18.774;2023-02-15T06:56:21;98802.06;;;20.37;42.71
41044;BME280;51680;49.806;18.774;2023-02-15T06:59:23;98806.38;;;21.32;41.77
41044;BME280;51680;49.806;18.774;2023-02-15T07:02:25;98813.69;;;22.11;40.07
41044;BME280;51680;49.806;18.774;2023-02-15T07:05:27;98817.94;;;22.91;38.58
41044;BME280;51680;49.806;18.774;2023-02-15T07:08:31;98806.53;;;23.65;37.74
41044;BME280;51680;49.806;18.774;2023-02-15T07:11:34;98806.84;;;24.08;35.24
41044;BME280;51680;49.806;18.774;2023-02-15T07:14:54;98803.69;;;24.66;35.59
41044;BME280;51680;49.806;18.774;2023-02-15T07:17:57;98805.28;;;25.47;33.67
41044;BME280;51680;49.806;18.774;2023-02-15T07:20:58;98805.25;;;26.23;33.10
41044;BME280;51680;49.806;18.774;2023-02-15T07:24:00;98806.66;;;26.93;31.71
41044;BME280;51680;49.806;18.774;2023-02-15T07:27:03;98807.00;;;27.38;30.61
41044;BME280;51680;49.806;18.774;2023-02-15T07:30:09;98801.13;;;27.74;30.21
41044;BME280;51680;49.806;18.774;2023-02-15T07:33:11;98800.44;;;28.35;30.00
41044;BME280;51680;49.806;18.774;2023-02-15T07:36:27;98802.97;;;28.97;28.65
41044;BME280;51680;49.806;18.774;2023-02-15T07:39:29;98811.56;;;29.38;27.82
41044;BME280;51680;49.806;18.774;2023-02-15T07:42:32;98805.94;;;29.70;26.94
41044;BME280;51680;49.806;18.774;2023-02-15T07:45:33;98796.50;;;30.32;26.76
41044;BME280;51680;49.806;18.774;2023-02-15T07:48:36;98794.47;;;30.70;25.93
41044;BME280;51680;49.806;18.774;2023-02-15T07:51:38;98795.22;;;31.20;25.26
41044;BME280;51680;49.806;18.774;2023-02-15T07:54:41;98805.13;;;31.13;25.18
41044;BME280;51680;49.806;18.774;2023-02-15T07:57:44;98796.53;;;27.99;24.08
41044;BME280;51680;49.806;18.774;2023-02-15T08:00:46;98797.44;;;25.45;26.96
41044;BME280;51680;49.806;18.774;2023-02-15T08:04:03;98797.78;;;22.98;28.14
41044;BME280;51680;49.806;18.774;2023-02-15T08:07:05;98791.47;;;22.21;29.74
41044;BME280;51680;49.806;18.774;2023-02-15T08:10:08;98788.66;;;21.63;29.75
41044;BME280;51680;49.806;18.774;2023-02-15T08:13:11;98781.19;;;21.27;30.58
41044;BME280;51680;49.806;18.774;2023-02-15T08:16:12;98773.31;;;22.36;30.36
41044;BME280;51680;49.806;18.774;2023-02-15T08:19:16;98775.88;;;23.78;28.90
41044;BME280;51680;49.806;18.774;2023-02-15T08:22:18;98781.97;;;24.96;28.34
41044;BME280;51680;49.806;18.774;2023-02-15T08:25:20;98768.50;;;26.49;27.10
41044;BME280;51680;49.806;18.774;2023-02-15T08:28:23;98773.16;;;28.15;25.81
41044;BME280;51680;49.806;18.774;2023-02-15T08:31:25;98774.28;;;29.35;25.39
41044;BME280;51680;49.806;18.774;2023-02-15T08:34:29;98773.56;;;28.96;22.25
41044;BME280;51680;49.806;18.774;2023-02-15T08:37:32;98778.06;;;29.40;24.64
41044;BME280;51680;49.806;18.774;2023-02-15T08:40:33;98775.00;;;28.53;24.19
41044;BME280;51680;49.806;18.774;2023-02-15T08:43:36;98768.44;;;27.55;24.22
41044;BME280;51680;49.806;18.774;2023-02-15T08:46:40;98768.44;;;27.07;25.25
41044;BME280;51680;49.806;18.774;2023-02-15T08:49:42;98764.41;;;26.21;25.38
41044;BME280;51680;49.806;18.774;2023-02-15T08:52:44;98759.38;;;25.34;26.19
41044;BME280;51680;49.806;18.774;2023-02-15T08:55:46;98754.22;;;23.91;26.28
41044;BME280;51680;49.806;18.774;2023-02-15T08:58:49;98750.50;;;22.71;27.51
41044;BME280;51680;49.806;18.774;2023-02-15T09:01:51;98744.47;;;22.50;28.62
41044;BME280;51680;49.806;18.774;2023-02-15T09:04:53;98742.69;;;23.54;28.42
41044;BME280;51680;49.806;18.774;2023-02-15T09:07:55;98737.31;;;23.27;27.96
41044;BME280;51680;49.806;18.774;2023-02-15T09:11:07;98725.66;;;22.33;27.19
41044;BME280;51680;49.806;18.774;2023-02-15T09:14:12;98729.13;;;22.24;27.71
41044;BME280;51680;49.806;18.774;2023-02-15T09:17:14;98726.00;;;22.00;29.07
41044;BME280;51680;49.806;18.774;2023-02-15T09:20:16;98728.06;;;21.87;28.68
41044;BME280;51680;49.806;18.774;2023-02-15T09:23:18;98723.13;;;22.31;28.58
41044;BME280;51680;49.806;18.774;2023-02-15T09:26:21;98725.88;;;23.80;27.20
41044;BME280;51680;49.806;18.774;2023-02-15T09:29:24;98724.41;;;24.67;26.97
41044;BME280;51680;49.806;18.774;2023-02-15T09:32:26;98719.16;;;26.92;25.87
41044;BME280;51680;49.806;18.774;2023-02-15T09:35:28;98716.19;;;27.89;24.62
41044;BME280;51680;49.806;18.774;2023-02-15T09:38:29;98711.34;;;27.69;24.24
41044;BME280;51680;49.806;18.774;2023-02-15T09:41:44;98708.03;;;25.89;23.02
41044;BME280;51680;49.806;18.774;2023-02-15T09:45:04;98710.66;;;25.48;24.16
41044;BME280;51680;49.806;18.774;2023-02-15T09:48:27;98697.88;;;25.34;23.38
41044;BME280;51680;49.806;18.774;2023-02-15T09:52:17;98694.25;;;25.43;23.62
41044;BME280;51680;49.806;18.774;2023-02-15T09:55:37;98700.84;;;24.88;23.69
41044;BME280;51680;49.806;18.774;2023-02-15T09:58:53;98692.47;;;24.48;24.96
41044;BME280;51680;49.806;18.774;2023-02-15T10:02:10;98681.50;;;24.94;24.97
41044;BME280;51680;49.806;18.774;2023-02-15T10:05:26;98675.91;;;25.56;25.71
41044;BME280;51680;49.806;18.774;2023-02-15T10:08:59;98677.50;;;27.52;22.97
41044;BME280;51680;49.806;18.774;2023-02-15T10:12:13;98672.66;;;29.81;22.62
41044;BME280;51680;49.806;18.774;2023-02-15T10:15:32;98671.25;;;31.46;20.46
41044;BME280;51680;49.806;18.774;2023-02-15T10:18:51;98676.53;;;32.42;18.63
41044;BME280;51680;49.806;18.774;2023-02-15T10:22:01;98675.78;;;32.93;19.53
41044;BME280;51680;49.806;18.774;2023-02-15T10:25:22;98675.38;;;33.48;17.61
41044;BME280;51680;49.806;18.774;2023-02-15T10:28:50;98678.75;;;34.07;20.55
41044;BME280;51680;49.806;18.774;2023-02-15T10:31:55;98673.81;;;34.48;17.62
41044;BME280;51680;49.806;18.774;2023-02-15T10:35:08;98677.47;;;34.60;18.08
41044;BME280;51680;49.806;18.774;2023-02-15T10:38:21;98673.00;;;34.41;18.57
41044;BME280;51680;49.806;18.774;2023-02-15T10:41:34;98668.31;;;34.61;18.80
41044;BME280;51680;49.806;18.774;2023-02-15T10:44:51;98666.44;;;34.11;17.71
41044;BME280;51680;49.806;18.774;2023-02-15T10:48:10;98660.97;;;34.24;17.97
41044;BME280;51680;49.806;18.774;2023-02-15T10:51:19;98658.44;;;34.67;18.19
41044;BME280;51680;49.806;18.774;2023-02-15T10:54:33;98659.28;;;34.67;17.10
41044;BME280;51680;49.806;18.774;2023-02-15T10:57:46;98650.25;;;34.73;17.70
41044;BME280;51680;49.806;18.774;2023-02-15T11:00:56;98650.88;;;35.00;18.99
41044;BME280;51680;49.806;18.774;2023-02-15T11:07:32;98643.66;;;31.51;19.65
41044;BME280;51680;49.806;18.774;2023-02-15T11:10:37;98642.06;;;29.01;23.77
41044;BME280;51680;49.806;18.774;2023-02-15T11:13:44;98636.00;;;25.29;25.12
41044;BME280;51680;49.806;18.774;2023-02-15T11:16:51;98632.44;;;23.36;28.24
41044;BME280;51680;49.806;18.774;2023-02-15T11:19:58;98637.38;;;21.90;29.46
41044;BME280;51680;49.806;18.774;2023-02-15T11:23:12;98624.91;;;20.81;29.69
41044;BME280;51680;49.806;18.774;2023-02-15T11:26:21;98626.19;;;19.72;32.03
41044;BME280;51680;49.806;18.774;2023-02-15T11:29:26;98634.44;;;18.11;34.18
41044;BME280;51680;49.806;18.774;2023-02-15T11:32:33;98624.00;;;16.77;35.80
41044;BME280;51680;49.806;18.774;2023-02-15T11:35:36;98628.78;;;15.81;37.06
41044;BME280;51680;49.806;18.774;2023-02-15T11:38:40;98611.53;;;15.63;37.58
41044;BME280;51680;49.806;18.774;2023-02-15T11:41:47;98619.31;;;15.38;38.10
41044;BME280;51680;49.806;18.774;2023-02-15T11:44:58;98607.69;;;15.14;38.88
41044;BME280;51680;49.806;18.774;2023-02-15T11:48:01;98605.16;;;14.85;39.50
41044;BME280;51680;49.806;18.774;2023-02-15T11:51:14;98598.94;;;14.86;39.79
41044;BME280;51680;49.806;18.774;2023-02-15T11:54:19;98598.78;;;14.89;40.07
41044;BME280;51680;49.806;18.774;2023-02-15T11:57:44;98592.66;;;14.88;39.94
41044;BME280;51680;49.806;18.774;2023-02-15T12:00:52;98597.47;;;14.82;40.71
41044;BME280;51680;49.806;18.774;2023-02-15T12:03:58;98583.28;;;14.70;40.99
41044;BME280;51680;49.806;18.774;2023-02-15T12:07:03;98583.47;;;14.67;41.25
41044;BME280;51680;49.806;18.774;2023-02-15T12:10:18;98580.94;;;14.66;41.47
41044;BME280;51680;49.806;18.774;2023-02-15T12:13:22;98571.84;;;14.57;41.34
41044;BME280;51680;49.806;18.774;2023-02-15T12:16:24;98567.69;;;14.39;42.04
41044;BME280;51680;49.806;18.774;2023-02-15T12:19:31;98578.38;;;14.22;42.71
41044;BME280;51680;49.806;18.774;2023-02-15T12:22:36;98571.94;;;14.12;42.50
41044;BME280;51680;49.806;18.774;2023-02-15T12:25:42;98570.69;;;14.04;43.06
41044;BME280;51680;49.806;18.774;2023-02-15T12:28:49;98561.88;;;13.91;43.42
41044;BME280;51680;49.806;18.774;2023-02-15T12:31:52;98555.53;;;13.79;43.36
41044;BME280;51680;49.806;18.774;2023-02-15T12:34:59;98562.25;;;13.69;43.83
41044;BME280;51680;49.806;18.774;2023-02-15T12:38:04;98560.16;;;13.60;44.16
41044;BME280;51680;49.806;18.774;2023-02-15T12:41:22;98555.06;;;13.57;45.95
41044;BME280;51680;49.806;18.774;2023-02-15T12:44:26;98550.94;;;13.53;44.78
41044;BME280;51680;49.806;18.774;2023-02-15T12:47:30;98551.56;;;13.43;44.77
41044;BME280;51680;49.806;18.774;2023-02-15T12:50:32;98551.22;;;13.33;45.09
41044;BME280;51680;49.806;18.774;2023-02-15T12:53:53;98555.66;;;13.17;45.38
41044;BME280;51680;49.806;18.774;2023-02-15T12:56:56;98548.22;;;13.10;45.76
41044;BME280;51680;49.806;18.774;2023-02-15T13:00:00;98540.94;;;12.99;45.91
41044;BME280;51680;49.806;18.774;2023-02-15T13:03:03;98543.09;;;12.91;46.24
41044;BME280;51680;49.806;18.774;2023-02-15T13:06:05;98544.97;;;12.89;46.45
41044;BME280;51680;49.806;18.774;2023-02-15T13:09:14;98531.69;;;12.77;47.60
41044;BME280;51680;49.806;18.774;2023-02-15T13:12:23;98531.91;;;12.72;47.99
41044;BME280;51680;49.806;18.774;2023-02-15T13:15:34;98530.50;;;12.67;48.35
41044;BME280;51680;49.806;18.774;2023-02-15T13:18:39;98529.91;;;12.62;47.38
41044;BME280;51680;49.806;18.774;2023-02-15T13:21:45;98529.03;;;12.61;47.42
41044;BME280;51680;49.806;18.774;2023-02-15T13:24:50;98524.81;;;12.59;47.49
41044;BME280;51680;49.806;18.774;2023-02-15T13:27:58;98519.97;;;12.51;47.88
41044;BME280;51680;49.806;18.774;2023-02-15T13:31:02;98518.44;;;12.47;47.91
41044;BME280;51680;49.806;18.774;2023-02-15T13:34:09;98515.84;;;12.47;48.42
41044;BME280;51680;49.806;18.774;2023-02-15T13:37:17;98505.50;;;12.44;48.57
41044;BME280;51680;49.806;18.774;2023-02-15T13:40:24;98508.75;;;12.49;48.92
41044;BME280;51680;49.806;18.774;2023-02-15T13:43:40;98515.69;;;12.50;50.45
41044;BME280;51680;49.806;18.774;2023-02-15T13:46:55;98512.28;;;12.48;49.92
41044;BME280;51680;49.806;18.774;2023-02-15T13:50:20;98505.50;;;12.44;50.18
41044;BME280;51680;49.806;18.774;2023-02-15T13:53:52;98507.63;;;12.38;51.41
41044;BME280;51680;49.806;18.774;2023-02-15T13:57:08;98495.63;;;12.34;50.27
41044;BME280;51680;49.806;18.774;2023-02-15T14:00:21;98494.03;;;12.31;50.49
41044;BME280;51680;49.806;18.774;2023-02-15T14:03:54;98493.72;;;12.20;51.51
41044;BME280;51680;49.806;18.774;2023-02-15T14:07:13;98496.91;;;12.10;50.98
41044;BME280;51680;49.806;18.774;2023-02-15T14:14:11;98491.31;;;12.00;50.99
41044;BME280;51680;49.806;18.774;2023-02-15T14:17:26;98494.41;;;11.91;50.99
41044;BME280;51680;49.806;18.774;2023-02-15T14:20:41;98502.16;;;11.93;51.98
41044;BME280;51680;49.806;18.774;2023-02-15T14:23:56;98499.47;;;11.94;51.19
41044;BME280;51680;49.806;18.774;2023-02-15T14:27:10;98496.88;;;11.94;51.68
41044;BME280;51680;49.806;18.774;2023-02-15T14:30:18;98488.34;;;11.91;50.91
41044;BME280;51680;49.806;18.774;2023-02-15T14:33:31;98491.03;;;11.89;51.94
41044;BME280;51680;49.806;18.774;2023-02-15T14:36:33;98487.78;;;11.84;50.86
41044;BME280;51680;49.806;18.774;2023-02-15T14:39:43;98488.13;;;11.78;51.95
41044;BME280;51680;49.806;18.774;2023-02-15T14:43:08;98492.13;;;11.68;52.50
41044;BME280;51680;49.806;18.774;2023-02-15T14:46:20;98491.59;;;11.62;52.90
41044;BME280;51680;49.806;18.774;2023-02-15T14:49:27;98487.41;;;11.58;51.88
41044;BME280;51680;49.806;18.774;2023-02-15T14:52:44;98485.84;;;11.54;53.29
41044;BME280;51680;49.806;18.774;2023-02-15T14:56:26;98495.78;;;11.47;54.12
41044;BME280;51680;49.806;18.774;2023-02-15T14:59:36;98482.09;;;11.42;53.56
41044;BME280;51680;49.806;18.774;2023-02-15T15:02:45;98490.38;;;11.33;53.50
41044;BME280;51680;49.806;18.774;2023-02-15T15:05:49;98487.22;;;11.27;53.12
41044;BME280;51680;49.806;18.774;2023-02-15T15:08:58;98480.69;;;11.18;54.01
41044;BME280;51680;49.806;18.774;2023-02-15T15:12:36;98483.66;;;11.11;56.26
41044;BME280;51680;49.806;18.774;2023-02-15T15:15:45;98487.59;;;11.02;54.99
41044;BME280;51680;49.806;18.774;2023-02-15T15:18:48;98482.56;;;10.98;54.12
41044;BME280;51680;49.806;18.774;2023-02-15T15:21:56;98483.84;;;10.89;55.71
41044;BME280;51680;49.806;18.774;2023-02-15T15:25:07;98487.56;;;10.67;59.44
41044;BME280;51680;49.806;18.774;2023-02-15T15:28:53;98483.47;;;10.61;58.54
41044;BME280;51680;49.806;18.774;2023-02-15T15:31:56;98483.00;;;10.53;55.52
41044;BME280;51680;49.806;18.774;2023-02-15T15:35:13;98480.50;;;10.50;57.01
41044;BME280;51680;49.806;18.774;2023-02-15T15:38:35;98479.81;;;10.47;57.70
41044;BME280;51680;49.806;18.774;2023-02-15T15:41:43;98479.25;;;10.40;56.51
41044;BME280;51680;49.806;18.774;2023-02-15T15:45:22;98472.59;;;10.33;58.09
41044;BME280;51680;49.806;18.774;2023-02-15T15:48:31;98478.25;;;10.24;57.30
41044;BME280;51680;49.806;18.774;2023-02-15T15:51:39;98468.06;;;10.18;57.36
41044;BME280;51680;49.806;18.774;2023-02-15T15:54:42;98468.47;;;10.09;57.10
41044;BME280;51680;49.806;18.774;2023-02-15T15:57:46;98473.94;;;10.03;57.38
41044;BME280;51680;49.806;18.774;2023-02-15T16:01:26;98464.97;;;9.90;58.56
41044;BME280;51680;49.806;18.774;2023-02-15T16:04:30;98473.22;;;9.81;58.03
41044;BME280;51680;49.806;18.774;2023-02-15T16:07:32;98473.34;;;9.58;62.24
41044;BME280;51680;49.806;18.774;2023-02-15T16:10:34;98460.31;;;9.58;58.20
41044;BME280;51680;49.806;18.774;2023-02-15T16:13:39;98471.47;;;9.42;62.60
41044;BME280;51680;49.806;18.774;2023-02-15T16:16:47;98470.53;;;9.43;59.43
41044;BME280;51680;49.806;18.774;2023-02-15T16:19:52;98475.16;;;9.36;58.86
41044;BME280;51680;49.806;18.774;2023-02-15T16:23:04;98474.56;;;9.30;60.14
41044;BME280;51680;49.806;18.774;2023-02-15T16:26:11;98472.28;;;9.22;59.93
41044;BME280;51680;49.806;18.774;2023-02-15T16:29:18;98470.03;;;9.13;59.41
41044;BME280;51680;49.806;18.774;2023-02-15T16:32:28;98470.31;;;9.07;59.73
41044;BME280;51680;49.806;18.774;2023-02-15T16:35:31;98471.47;;;9.00;59.60